sensor_id;sensor_type;location;lat;lon;timestamp;P1;durP1;ratioP1;P2;durP2;ratioP2
4325;SDS011;58429;49.826;10.880;2023-05-07T00:00:59;9.2;;;4.5;;
4325;SDS011;58429;49.826;10.880;2023-05-07T00:01:59;9.2;;;4.5;;
4325;SDS011;58429;49.826;10.880;2023-05-07T00:02:59;9.2;;;4.5;;
4325;SDS011;58429;49.826;10.880;2023-05-07T00:03:59;9.8;;;4.3;;
4325;SDS011;58429;49.826;10.880;2023-05-07T00:04:59;9.8;;;4.3;;
4325;SDS011;58429;49.826;10.880;2023-05-07T00:05:59;9.8;;;4.3;;
4325;SDS011;58429;49.826;10.880;2023-05-07T00:06:59;8.6;;;3.5;;
4325;SDS011;58429;49.826;10.880;2023-05-07T00:07:59;8.6;;;3.5;;
4325;SDS011;58429;49.826;10.880;2023-05-07T00:08:59;8.6;;;3.5;;
4325;SDS011;58429;49.826;10.880;2023-05-07T00:09:59;7.9;;;3.8;;
4325;SDS011;58429;49.826;10.880;2023-05-07T00:10:59;7.9;;;3.8;;
4325;SDS011;58429;49.826;10.880;2023-05-07T00:11:59;7.9;;;3.8;;
4325;SDS011;58429;49.826;10.880;2023-05-07T00:12:59;9.5;;;4.5;;
4325;SDS011;58429;49.826;10.880;2023-05-07T00:13:59;9.5;;;4.5;;
4325;SDS011;58429;49.826;10.880;2023-05-07T00:14:59;9.5;;;4.5;;
4325;SDS011;58429;49.826;10.880;2023-05-07T00:15:59;9.6;;;4.7;;
4325;SDS011;58429;49.826;10.880;2023-05-07T00:16:59;9.6;;;4.7;;
4325;SDS011;58429;49.826;10.880;2023-05-07T00:17:59;9.6;;;4.7;;
4325;SDS011;58429;49.826;10.880;2023-05-07T00:18:59;8.4;;;4.7;;
4325;SDS011;58429;49.826;10.880;2023-05-07T00:19:59;8.4;;;4.7;;
4325;SDS011;58429;49.826;10.880;2023-05-07T00:20:59;8.4;;;4.7;;
4325;SDS011;58429;49.826;10.880;2023-05-07T00:21:59;11.4;;;4.8;;
4325;SDS011;58429;49.826;10.880;2023-05-07T00:22:59;11.4;;;4.8;;
4325;SDS011;58429;49.826;10.880;2023-05-07T00:23:59;11.4;;;4.8;;
4325;SDS011;58429;49.826;10.880;2023-05-07T00:24:59;10.5;;;4.9;;
4325;SDS011;58429;49.826;10.880;2023-05-07T00:25:59;10.5;;;4.9;;
4325;SDS011;58429;49.826;10.880;2023-05-07T00:26:59;10.5;;;4.9;;
4325;SDS011;58429;49.826;10.880;2023-05-07T00:27:59;10.3;;;4.9;;
4325;SDS011;58429;49.826;10.880;2023-05-07T00:28:59;10.3;;;4.9;;
4325;SDS011;58429;49.826;10.880;2023-05-07T00:29:59;10.3;;;4.9;;
4325;SDS011;58429;49.826;10.880;2023-05-07T00:30:59;9.8;;;5.2;;
4325;SDS011;58429;49.826;10.880;2023-05-07T00:31:59;9.8;;;5.2;;
4325;SDS011;58429;49.826;10.880;2023-05-07T00:32:59;9.8;;;5.2;;
4325;SDS011;58429;49.826;10.880;2023-05-07T00:33:59;9.1;;;4.5;;
4325;SDS011;58429;49.826;10.880;2023-05-07T00:34:59;9.1;;;4.5;;
4325;SDS011;58429;49.826;10.880;2023-05-07T00:35:59;9.1;;;4.5;;
4325;SDS011;58429;49.826;10.880;2023-05-07T00:36:59;10;;;5.6;;
4325;SDS011;58429;49.826;10.880;2023-05-07T00:37:59;10;;;5.6;;
4325;SDS011;58429;49.826;10.880;2023-05-07T00:39:00;10;;;5.6;;
4325;SDS011;58429;49.826;10.880;2023-05-07T00:39:59;9.1;;;4;;
4325;SDS011;58429;49.826;10.880;2023-05-07T00:40:59;9.1;;;4;;
4325;SDS011;58429;49.826;10.880;2023-05-07T00:41:59;9.1;;;4;;
4325;SDS011;58429;49.826;10.880;2023-05-07T00:42:59;8.6;;;4.2;;
4325;SDS011;58429;49.826;10.880;2023-05-07T00:43:59;8.6;;;4.2;;
4325;SDS011;58429;49.826;10.880;2023-05-07T00:44:59;8.6;;;4.2;;
4325;SDS011;58429;49.826;10.880;2023-05-07T00:45:59;8.2;;;4.1;;
4325;SDS011;58429;49.826;10.880;2023-05-07T00:46:59;8.2;;;4.1;;
4325;SDS011;58429;49.826;10.880;2023-05-07T00:48:00;8.2;;;4.1;;
4325;SDS011;58429;49.826;10.880;2023-05-07T00:48:59;10.5;;;4.1;;
4325;SDS011;58429;49.826;10.880;2023-05-07T00:49:59;10.5;;;4.1;;
4325;SDS011;58429;49.826;10.880;2023-05-07T00:50:59;10.5;;;4.1;;
4325;SDS011;58429;49.826;10.880;2023-05-07T00:51:59;7.8;;;3.9;;
4325;SDS011;58429;49.826;10.880;2023-05-07T00:52:59;7.8;;;3.9;;
4325;SDS011;58429;49.826;10.880;2023-05-07T00:53:59;7.8;;;3.9;;
4325;SDS011;58429;49.826;10.880;2023-05-07T00:54:59;9.7;;;4.1;;
4325;SDS011;58429;49.826;10.880;2023-05-07T00:55:59;9.7;;;4.1;;
4325;SDS011;58429;49.826;10.880;2023-05-07T00:56:59;9.7;;;4.1;;
4325;SDS011;58429;49.826;10.880;2023-05-07T00:57:59;10.5;;;4.3;;
4325;SDS011;58429;49.826;10.880;2023-05-07T00:59:00;10.5;;;4.3;;
4325;SDS011;58429;49.826;10.880;2023-05-07T00:59:59;10.5;;;4.3;;
4325;SDS011;58429;49.826;10.880;2023-05-07T01:00:59;10.5;;;4.3;;
4325;SDS011;58429;49.826;10.880;2023-05-07T01:01:59;7.7;;;3.6;;
4325;SDS011;58429;49.826;10.880;2023-05-07T01:02:59;7.7;;;3.6;;
4325;SDS011;58429;49.826;10.880;2023-05-07T01:03:59;7.7;;;3.6;;
4325;SDS011;58429;49.826;10.880;2023-05-07T01:04:59;10.5;;;4.1;;
4325;SDS011;58429;49.826;10.880;2023-05-07T01:05:59;10.5;;;4.1;;
4325;SDS011;58429;49.826;10.880;2023-05-07T01:06:59;10.5;;;4.1;;
4325;SDS011;58429;49.826;10.880;2023-05-07T01:07:59;9;;;4.1;;
4325;SDS011;58429;49.826;10.880;2023-05-07T01:08:59;9;;;4.1;;
4325;SDS011;58429;49.826;10.880;2023-05-07T01:09:59;9;;;4.1;;
4325;SDS011;58429;49.826;10.880;2023-05-07T01:10:59;8.6;;;4.1;;
4325;SDS011;58429;49.826;10.880;2023-05-07T01:11:59;8.6;;;4.1;;
4325;SDS011;58429;49.826;10.880;2023-05-07T01:12:59;8.6;;;4.1;;
4325;SDS011;58429;49.826;10.880;2023-05-07T01:13:59;8.2;;;4;;
4325;SDS011;58429;49.826;10.880;2023-05-07T01:14:59;8.2;;;4;;
4325;SDS011;58429;49.826;10.880;2023-05-07T01:15:59;8.2;;;4;;
4325;SDS011;58429;49.826;10.880;2023-05-07T01:16:59;8.5;;;4.1;;
4325;SDS011;58429;49.826;10.880;2023-05-07T01:17:59;8.5;;;4.1;;
4325;SDS011;58429;49.826;10.880;2023-05-07T01:18:59;8.5;;;4.1;;
4325;SDS011;58429;49.826;10.880;2023-05-07T01:19:59;7.9;;;4.1;;
4325;SDS011;58429;49.826;10.880;2023-05-07T01:20:59;7.9;;;4.1;;
4325;SDS011;58429;49.826;10.880;2023-05-07T01:22:01;7.9;;;4.1;;
4325;SDS011;58429;49.826;10.880;2023-05-07T01:22:59;8.7;;;4.5;;
4325;SDS011;58429;49.826;10.880;2023-05-07T01:23:59;8.7;;;4.5;;
4325;SDS011;58429;49.826;10.880;2023-05-07T01:24:59;8.7;;;4.5;;
4325;SDS011;58429;49.826;10.880;2023-05-07T01:25:59;9.4;;;4.5;;
4325;SDS011;58429;49.826;10.880;2023-05-07T01:26:59;9.4;;;4.5;;
4325;SDS011;58429;49.826;10.880;2023-05-07T01:27:59;9.4;;;4.5;;
4325;SDS011;58429;49.826;10.880;2023-05-07T01:28:59;8.7;;;4.5;;
4325;SDS011;58429;49.826;10.880;2023-05-07T01:29:59;8.7;;;4.5;;
4325;SDS011;58429;49.826;10.880;2023-05-07T01:31:00;8.7;;;4.5;;
4325;SDS011;58429;49.826;10.880;2023-05-07T01:32:00;7.9;;;3.8;;
4325;SDS011;58429;49.826;10.880;2023-05-07T01:33:00;7.9;;;3.8;;
4325;SDS011;58429;49.826;10.880;2023-05-07T01:33:59;7.9;;;3.8;;
4325;SDS011;58429;49.826;10.880;2023-05-07T01:34:59;9.6;;;4.2;;
4325;SDS011;58429;49.826;10.880;2023-05-07T01:35:59;9.6;;;4.2;;
4325;SDS011;58429;49.826;10.880;2023-05-07T01:36:59;9.6;;;4.2;;
4325;SDS011;58429;49.826;10.880;2023-05-07T01:38:00;8;;;3.9;;
4325;SDS011;58429;49.826;10.880;2023-05-07T01:38:59;8;;;3.9;;
4325;SDS011;58429;49.826;10.880;2023-05-07T01:39:59;8;;;3.9;;
4325;SDS011;58429;49.826;10.880;2023-05-07T01:40:59;8;;;4.1;;
4325;SDS011;58429;49.826;10.880;2023-05-07T01:41:59;8;;;4.1;;
4325;SDS011;58429;49.826;10.880;2023-05-07T01:42:59;8;;;4.1;;
4325;SDS011;58429;49.826;10.880;2023-05-07T01:43:59;8;;;4;;
4325;SDS011;58429;49.826;10.880;2023-05-07T01:44:59;8;;;4;;
4325;SDS011;58429;49.826;10.880;2023-05-07T01:45:59;8;;;4;;
4325;SDS011;58429;49.826;10.880;2023-05-07T01:46:59;8.6;;;4;;
4325;SDS011;58429;49.826;10.880;2023-05-07T01:47:59;8.6;;;4;;
4325;SDS011;58429;49.826;10.880;2023-05-07T01:48:59;8.6;;;4;;
4325;SDS011;58429;49.826;10.880;2023-05-07T01:49:59;9;;;4.4;;
4325;SDS011;58429;49.826;10.880;2023-05-07T01:50:59;9;;;4.4;;
4325;SDS011;58429;49.826;10.880;2023-05-07T01:51:59;9;;;4.4;;
4325;SDS011;58429;49.826;10.880;2023-05-07T01:52:59;8.8;;;4.2;;
4325;SDS011;58429;49.826;10.880;2023-05-07T01:53:59;8.8;;;4.2;;
4325;SDS011;58429;49.826;10.880;2023-05-07T01:54:59;8.8;;;4.2;;
4325;SDS011;58429;49.826;10.880;2023-05-07T01:55:59;8.2;;;4.4;;
4325;SDS011;58429;49.826;10.880;2023-05-07T01:56:59;8.2;;;4.4;;
4325;SDS011;58429;49.826;10.880;2023-05-07T01:57:59;8.2;;;4.4;;
4325;SDS011;58429;49.826;10.880;2023-05-07T01:58:59;8.3;;;3.8;;
4325;SDS011;58429;49.826;10.880;2023-05-07T01:59:59;8.3;;;3.8;;
4325;SDS011;58429;49.826;10.880;2023-05-07T02:00:59;8.3;;;3.8;;
4325;SDS011;58429;49.826;10.880;2023-05-07T02:01:59;8.8;;;4.5;;
4325;SDS011;58429;49.826;10.880;2023-05-07T02:02:59;8.8;;;4.5;;
4325;SDS011;58429;49.826;10.880;2023-05-07T02:03:59;8.8;;;4.5;;
4325;SDS011;58429;49.826;10.880;2023-05-07T02:04:59;8.3;;;3.9;;
4325;SDS011;58429;49.826;10.880;2023-05-07T02:05:59;8.3;;;3.9;;
4325;SDS011;58429;49.826;10.880;2023-05-07T02:06:59;8.3;;;3.9;;
4325;SDS011;58429;49.826;10.880;2023-05-07T02:07:59;9.6;;;4.5;;
4325;SDS011;58429;49.826;10.880;2023-05-07T02:08:59;9.6;;;4.5;;
4325;SDS011;58429;49.826;10.880;2023-05-07T02:09:59;9.6;;;4.5;;
4325;SDS011;58429;49.826;10.880;2023-05-07T02:10:59;8.4;;;4.1;;
4325;SDS011;58429;49.826;10.880;2023-05-07T02:11:59;8.4;;;4.1;;
4325;SDS011;58429;49.826;10.880;2023-05-07T02:12:59;8.4;;;4.1;;
4325;SDS011;58429;49.826;10.880;2023-05-07T02:13:59;8.3;;;4.6;;
4325;SDS011;58429;49.826;10.880;2023-05-07T02:14:59;8.3;;;4.6;;
4325;SDS011;58429;49.826;10.880;2023-05-07T02:15:59;8.3;;;4.6;;
4325;SDS011;58429;49.826;10.880;2023-05-07T02:16:59;8.9;;;4.3;;
4325;SDS011;58429;49.826;10.880;2023-05-07T02:18:00;8.9;;;4.3;;
4325;SDS011;58429;49.826;10.880;2023-05-07T02:18:59;8.9;;;4.3;;
4325;SDS011;58429;49.826;10.880;2023-05-07T02:19:59;8.1;;;4.1;;
4325;SDS011;58429;49.826;10.880;2023-05-07T02:20:59;8.1;;;4.1;;
4325;SDS011;58429;49.826;10.880;2023-05-07T02:21:59;8.1;;;4.1;;
4325;SDS011;58429;49.826;10.880;2023-05-07T02:22:59;7.8;;;4.1;;
4325;SDS011;58429;49.826;10.880;2023-05-07T02:23:59;7.8;;;4.1;;
4325;SDS011;58429;49.826;10.880;2023-05-07T02:24:59;7.8;;;4.1;;
4325;SDS011;58429;49.826;10.880;2023-05-07T02:25:59;7.8;;;3.9;;
4325;SDS011;58429;49.826;10.880;2023-05-07T02:27:00;7.8;;;3.9;;
4325;SDS011;58429;49.826;10.880;2023-05-07T02:27:59;7.8;;;3.9;;
4325;SDS011;58429;49.826;10.880;2023-05-07T02:28:59;8.1;;;4.1;;
4325;SDS011;58429;49.826;10.880;2023-05-07T02:29:59;8.1;;;4.1;;
4325;SDS011;58429;49.826;10.880;2023-05-07T02:30:59;8.1;;;4.1;;
4325;SDS011;58429;49.826;10.880;2023-05-07T02:32:00;8.6;;;4.3;;
4325;SDS011;58429;49.826;10.880;2023-05-07T02:32:59;8.6;;;4.3;;
4325;SDS011;58429;49.826;10.880;2023-05-07T02:33:59;8.6;;;4.3;;
4325;SDS011;58429;49.826;10.880;2023-05-07T02:34:59;8.1;;;3.9;;
4325;SDS011;58429;49.826;10.880;2023-05-07T02:36:04;8.1;;;3.9;;
4325;SDS011;58429;49.826;10.880;2023-05-07T02:36:59;8.1;;;3.9;;
4325;SDS011;58429;49.826;10.880;2023-05-07T02:37:59;8.2;;;4.2;;
4325;SDS011;58429;49.826;10.880;2023-05-07T02:38:59;8.2;;;4.2;;
4325;SDS011;58429;49.826;10.880;2023-05-07T02:39:59;8.2;;;4.2;;
4325;SDS011;58429;49.826;10.880;2023-05-07T02:40:59;8.6;;;3.8;;
4325;SDS011;58429;49.826;10.880;2023-05-07T02:41:59;8.6;;;3.8;;
4325;SDS011;58429;49.826;10.880;2023-05-07T02:43:00;8.6;;;3.8;;
4325;SDS011;58429;49.826;10.880;2023-05-07T02:43:59;8;;;4.2;;
4325;SDS011;58429;49.826;10.880;2023-05-07T02:44:59;8;;;4.2;;
4325;SDS011;58429;49.826;10.880;2023-05-07T02:46:00;8;;;4.2;;
4325;SDS011;58429;49.826;10.880;2023-05-07T02:46:59;8.7;;;3.9;;
4325;SDS011;58429;49.826;10.880;2023-05-07T02:48:00;8.7;;;3.9;;
4325;SDS011;58429;49.826;10.880;2023-05-07T02:48:59;8.7;;;3.9;;
4325;SDS011;58429;49.826;10.880;2023-05-07T02:50:00;7.5;;;3.9;;
4325;SDS011;58429;49.826;10.880;2023-05-07T02:51:00;7.5;;;3.9;;
4325;SDS011;58429;49.826;10.880;2023-05-07T02:52:00;7.5;;;3.9;;
4325;SDS011;58429;49.826;10.880;2023-05-07T02:53:00;7.4;;;3.8;;
4325;SDS011;58429;49.826;10.880;2023-05-07T02:53:59;7.4;;;3.8;;
4325;SDS011;58429;49.826;10.880;2023-05-07T02:55:00;7.4;;;3.8;;
4325;SDS011;58429;49.826;10.880;2023-05-07T02:56:00;7.3;;;3.7;;
4325;SDS011;58429;49.826;10.880;2023-05-07T02:57:00;7.3;;;3.7;;
4325;SDS011;58429;49.826;10.880;2023-05-07T02:58:00;7.3;;;3.7;;
4325;SDS011;58429;49.826;10.880;2023-05-07T02:59:00;7.3;;;3.7;;
4325;SDS011;58429;49.826;10.880;2023-05-07T03:00:06;8.7;;;4;;
4325;SDS011;58429;49.826;10.880;2023-05-07T03:00:59;8.7;;;4;;
4325;SDS011;58429;49.826;10.880;2023-05-07T03:01:59;8.7;;;4;;
4325;SDS011;58429;49.826;10.880;2023-05-07T03:02:59;7.9;;;3.9;;
4325;SDS011;58429;49.826;10.880;2023-05-07T03:04:00;7.9;;;3.9;;
4325;SDS011;58429;49.826;10.880;2023-05-07T03:05:00;7.9;;;3.9;;
4325;SDS011;58429;49.826;10.880;2023-05-07T03:06:00;8.4;;;4.7;;
4325;SDS011;58429;49.826;10.880;2023-05-07T03:07:00;8.4;;;4.7;;
4325;SDS011;58429;49.826;10.880;2023-05-07T03:08:00;8.4;;;4.7;;
4325;SDS011;58429;49.826;10.880;2023-05-07T03:09:00;8.3;;;4.7;;
4325;SDS011;58429;49.826;10.880;2023-05-07T03:10:00;8.3;;;4.7;;
4325;SDS011;58429;49.826;10.880;2023-05-07T03:11:00;8.3;;;4.7;;
4325;SDS011;58429;49.826;10.880;2023-05-07T03:12:00;8.9;;;4.7;;
4325;SDS011;58429;49.826;10.880;2023-05-07T03:13:00;8.9;;;4.7;;
4325;SDS011;58429;49.826;10.880;2023-05-07T03:14:00;8.9;;;4.7;;
4325;SDS011;58429;49.826;10.880;2023-05-07T03:15:00;8.9;;;4.7;;
4325;SDS011;58429;49.826;10.880;2023-05-07T03:16:00;8.9;;;4.7;;
4325;SDS011;58429;49.826;10.880;2023-05-07T03:17:00;8.9;;;4.7;;
4325;SDS011;58429;49.826;10.880;2023-05-07T03:18:00;8.4;;;4.6;;
4325;SDS011;58429;49.826;10.880;2023-05-07T03:19:00;8.4;;;4.6;;
4325;SDS011;58429;49.826;10.880;2023-05-07T03:20:00;8.4;;;4.6;;
4325;SDS011;58429;49.826;10.880;2023-05-07T03:21:00;9.5;;;5.2;;
4325;SDS011;58429;49.826;10.880;2023-05-07T03:22:00;9.5;;;5.2;;
4325;SDS011;58429;49.826;10.880;2023-05-07T03:23:00;9.5;;;5.2;;
4325;SDS011;58429;49.826;10.880;2023-05-07T03:24:00;8;;;4.5;;
4325;SDS011;58429;49.826;10.880;2023-05-07T03:25:00;8;;;4.5;;
4325;SDS011;58429;49.826;10.880;2023-05-07T03:26:00;8;;;4.5;;
4325;SDS011;58429;49.826;10.880;2023-05-07T03:27:00;9.7;;;4.9;;
4325;SDS011;58429;49.826;10.880;2023-05-07T03:28:00;9.7;;;4.9;;
4325;SDS011;58429;49.826;10.880;2023-05-07T03:29:00;9.7;;;4.9;;
4325;SDS011;58429;49.826;10.880;2023-05-07T03:30:00;9.4;;;5.2;;
4325;SDS011;58429;49.826;10.880;2023-05-07T03:31:00;9.4;;;5.2;;
4325;SDS011;58429;49.826;10.880;2023-05-07T03:32:00;9.4;;;5.2;;
4325;SDS011;58429;49.826;10.880;2023-05-07T03:33:00;9.2;;;5.2;;
4325;SDS011;58429;49.826;10.880;2023-05-07T03:34:00;9.2;;;5.2;;
4325;SDS011;58429;49.826;10.880;2023-05-07T03:35:00;9.2;;;5.2;;
4325;SDS011;58429;49.826;10.880;2023-05-07T03:36:00;9.6;;;5.4;;
4325;SDS011;58429;49.826;10.880;2023-05-07T03:37:00;9.6;;;5.4;;
4325;SDS011;58429;49.826;10.880;2023-05-07T03:38:00;9.6;;;5.4;;
4325;SDS011;58429;49.826;10.880;2023-05-07T03:39:00;9.3;;;5;;
4325;SDS011;58429;49.826;10.880;2023-05-07T03:40:00;9.3;;;5;;
4325;SDS011;58429;49.826;10.880;2023-05-07T03:41:00;9.3;;;5;;
4325;SDS011;58429;49.826;10.880;2023-05-07T03:42:00;8;;;4.4;;
4325;SDS011;58429;49.826;10.880;2023-05-07T03:43:00;8;;;4.4;;
4325;SDS011;58429;49.826;10.880;2023-05-07T03:44:00;8;;;4.4;;
4325;SDS011;58429;49.826;10.880;2023-05-07T03:45:00;8.9;;;4.7;;
4325;SDS011;58429;49.826;10.880;2023-05-07T03:46:00;8.9;;;4.7;;
4325;SDS011;58429;49.826;10.880;2023-05-07T03:47:00;8.9;;;4.7;;
4325;SDS011;58429;49.826;10.880;2023-05-07T03:48:00;8.4;;;4.2;;
4325;SDS011;58429;49.826;10.880;2023-05-07T03:49:00;8.4;;;4.2;;
4325;SDS011;58429;49.826;10.880;2023-05-07T03:50:00;8.4;;;4.2;;
4325;SDS011;58429;49.826;10.880;2023-05-07T03:51:00;8.9;;;4.7;;
4325;SDS011;58429;49.826;10.880;2023-05-07T03:52:00;8.9;;;4.7;;
4325;SDS011;58429;49.826;10.880;2023-05-07T03:53:00;8.9;;;4.7;;
4325;SDS011;58429;49.826;10.880;2023-05-07T03:54:00;9.2;;;4.6;;
4325;SDS011;58429;49.826;10.880;2023-05-07T03:55:00;9.2;;;4.6;;
4325;SDS011;58429;49.826;10.880;2023-05-07T03:56:00;9.2;;;4.6;;
4325;SDS011;58429;49.826;10.880;2023-05-07T03:57:00;8.3;;;4.8;;
4325;SDS011;58429;49.826;10.880;2023-05-07T03:58:00;8.3;;;4.8;;
4325;SDS011;58429;49.826;10.880;2023-05-07T03:59:00;8.3;;;4.8;;
4325;SDS011;58429;49.826;10.880;2023-05-07T04:00:00;9.1;;;4.6;;
4325;SDS011;58429;49.826;10.880;2023-05-07T04:01:00;9.1;;;4.6;;
4325;SDS011;58429;49.826;10.880;2023-05-07T04:02:00;9.1;;;4.6;;
4325;SDS011;58429;49.826;10.880;2023-05-07T04:03:00;8.3;;;4.8;;
4325;SDS011;58429;49.826;10.880;2023-05-07T04:04:00;8.3;;;4.8;;
4325;SDS011;58429;49.826;10.880;2023-05-07T04:05:00;8.3;;;4.8;;
4325;SDS011;58429;49.826;10.880;2023-05-07T04:06:00;10;;;5;;
4325;SDS011;58429;49.826;10.880;2023-05-07T04:07:00;10;;;5;;
4325;SDS011;58429;49.826;10.880;2023-05-07T04:08:00;10;;;5;;
4325;SDS011;58429;49.826;10.880;2023-05-07T04:09:00;9.9;;;4.8;;
4325;SDS011;58429;49.826;10.880;2023-05-07T04:10:00;9.9;;;4.8;;
4325;SDS011;58429;49.826;10.880;2023-05-07T04:11:00;9.9;;;4.8;;
4325;SDS011;58429;49.826;10.880;2023-05-07T04:12:00;8.7;;;4.8;;
4325;SDS011;58429;49.826;10.880;2023-05-07T04:13:00;8.7;;;4.8;;
4325;SDS011;58429;49.826;10.880;2023-05-07T04:14:00;8.7;;;4.8;;
4325;SDS011;58429;49.826;10.880;2023-05-07T04:15:00;8.7;;;5;;
4325;SDS011;58429;49.826;10.880;2023-05-07T04:16:01;8.7;;;5;;
4325;SDS011;58429;49.826;10.880;2023-05-07T04:17:00;8.7;;;5;;
4325;SDS011;58429;49.826;10.880;2023-05-07T04:18:00;9.3;;;5.3;;
4325;SDS011;58429;49.826;10.880;2023-05-07T04:19:00;9.3;;;5.3;;
4325;SDS011;58429;49.826;10.880;2023-05-07T04:20:00;9.3;;;5.3;;
4325;SDS011;58429;49.826;10.880;2023-05-07T04:21:00;8.9;;;4.8;;
4325;SDS011;58429;49.826;10.880;2023-05-07T04:22:00;8.9;;;4.8;;
4325;SDS011;58429;49.826;10.880;2023-05-07T04:23:00;8.9;;;4.8;;
4325;SDS011;58429;49.826;10.880;2023-05-07T04:24:02;9.9;;;5.3;;
4325;SDS011;58429;49.826;10.880;2023-05-07T04:25:00;9.9;;;5.3;;
4325;SDS011;58429;49.826;10.880;2023-05-07T04:26:00;9.9;;;5.3;;
4325;SDS011;58429;49.826;10.880;2023-05-07T04:27:00;10.4;;;5.8;;
4325;SDS011;58429;49.826;10.880;2023-05-07T04:28:00;10.4;;;5.8;;
4325;SDS011;58429;49.826;10.880;2023-05-07T04:29:00;10.4;;;5.8;;
4325;SDS011;58429;49.826;10.880;2023-05-07T04:30:00;9.4;;;5.2;;
4325;SDS011;58429;49.826;10.880;2023-05-07T04:31:00;9.4;;;5.2;;
4325;SDS011;58429;49.826;10.880;2023-05-07T04:32:00;9.4;;;5.2;;
4325;SDS011;58429;49.826;10.880;2023-05-07T04:33:00;8.3;;;4.7;;
4325;SDS011;58429;49.826;10.880;2023-05-07T04:34:00;8.3;;;4.7;;
4325;SDS011;58429;49.826;10.880;2023-05-07T04:35:00;8.3;;;4.7;;
4325;SDS011;58429;49.826;10.880;2023-05-07T04:36:00;9.4;;;4.9;;
4325;SDS011;58429;49.826;10.880;2023-05-07T04:37:00;9.4;;;4.9;;
4325;SDS011;58429;49.826;10.880;2023-05-07T04:38:00;9.4;;;4.9;;
4325;SDS011;58429;49.826;10.880;2023-05-07T04:39:00;10.5;;;5;;
4325;SDS011;58429;49.826;10.880;2023-05-07T04:40:00;10.5;;;5;;
4325;SDS011;58429;49.826;10.880;2023-05-07T04:41:02;10.5;;;5;;
4325;SDS011;58429;49.826;10.880;2023-05-07T04:42:00;8.8;;;4.8;;
4325;SDS011;58429;49.826;10.880;2023-05-07T04:43:00;8.8;;;4.8;;
4325;SDS011;58429;49.826;10.880;2023-05-07T04:44:00;8.8;;;4.8;;
4325;SDS011;58429;49.826;10.880;2023-05-07T04:45:00;8.8;;;5.4;;
4325;SDS011;58429;49.826;10.880;2023-05-07T04:46:00;8.8;;;5.4;;
4325;SDS011;58429;49.826;10.880;2023-05-07T04:47:00;8.8;;;5.4;;
4325;SDS011;58429;49.826;10.880;2023-05-07T04:48:00;9.4;;;5.4;;
4325;SDS011;58429;49.826;10.880;2023-05-07T04:49:00;9.4;;;5.4;;
4325;SDS011;58429;49.826;10.880;2023-05-07T04:50:00;9.4;;;5.4;;
4325;SDS011;58429;49.826;10.880;2023-05-07T04:51:00;12;;;6.5;;
4325;SDS011;58429;49.826;10.880;2023-05-07T04:52:00;12;;;6.5;;
4325;SDS011;58429;49.826;10.880;2023-05-07T04:53:00;12;;;6.5;;
4325;SDS011;58429;49.826;10.880;2023-05-07T04:54:00;12;;;6.5;;
4325;SDS011;58429;49.826;10.880;2023-05-07T04:55:00;11.5;;;6.8;;
4325;SDS011;58429;49.826;10.880;2023-05-07T04:56:00;11.5;;;6.8;;
4325;SDS011;58429;49.826;10.880;2023-05-07T04:57:00;11.5;;;6.8;;
4325;SDS011;58429;49.826;10.880;2023-05-07T04:58:00;11.9;;;6.8;;
4325;SDS011;58429;49.826;10.880;2023-05-07T04:59:00;11.9;;;6.8;;
4325;SDS011;58429;49.826;10.880;2023-05-07T05:00:00;11.9;;;6.8;;
4325;SDS011;58429;49.826;10.880;2023-05-07T05:01:00;11.8;;;7.2;;
4325;SDS011;58429;49.826;10.880;2023-05-07T05:02:00;11.8;;;7.2;;
4325;SDS011;58429;49.826;10.880;2023-05-07T05:03:00;11.8;;;7.2;;
4325;SDS011;58429;49.826;10.880;2023-05-07T05:04:00;12;;;7.4;;
4325;SDS011;58429;49.826;10.880;2023-05-07T05:05:00;12;;;7.4;;
4325;SDS011;58429;49.826;10.880;2023-05-07T05:06:00;12;;;7.4;;
4325;SDS011;58429;49.826;10.880;2023-05-07T05:07:00;13.1;;;7.6;;
4325;SDS011;58429;49.826;10.880;2023-05-07T05:08:00;13.1;;;7.6;;
4325;SDS011;58429;49.826;10.880;2023-05-07T05:09:00;13.1;;;7.6;;
4325;SDS011;58429;49.826;10.880;2023-05-07T05:10:01;11.4;;;7;;
4325;SDS011;58429;49.826;10.880;2023-05-07T05:11:00;11.4;;;7;;
4325;SDS011;58429;49.826;10.880;2023-05-07T05:12:00;11.4;;;7;;
4325;SDS011;58429;49.826;10.880;2023-05-07T05:13:00;11.6;;;7.4;;
4325;SDS011;58429;49.826;10.880;2023-05-07T05:14:00;11.6;;;7.4;;
4325;SDS011;58429;49.826;10.880;2023-05-07T05:15:00;11.6;;;7.4;;
4325;SDS011;58429;49.826;10.880;2023-05-07T05:16:00;11.1;;;6.6;;
4325;SDS011;58429;49.826;10.880;2023-05-07T05:17:00;11.1;;;6.6;;
4325;SDS011;58429;49.826;10.880;2023-05-07T05:18:00;11.1;;;6.6;;
4325;SDS011;58429;49.826;10.880;2023-05-07T05:19:01;11;;;6.7;;
4325;SDS011;58429;49.826;10.880;2023-05-07T05:20:00;11;;;6.7;;
4325;SDS011;58429;49.826;10.880;2023-05-07T05:21:00;11;;;6.7;;
4325;SDS011;58429;49.826;10.880;2023-05-07T05:22:00;10.6;;;6.7;;
4325;SDS011;58429;49.826;10.880;2023-05-07T05:23:00;10.6;;;6.7;;
4325;SDS011;58429;49.826;10.880;2023-05-07T05:24:00;10.6;;;6.7;;
4325;SDS011;58429;49.826;10.880;2023-05-07T05:25:00;10.4;;;6.1;;
4325;SDS011;58429;49.826;10.880;2023-05-07T05:26:00;10.4;;;6.1;;
4325;SDS011;58429;49.826;10.880;2023-05-07T05:27:00;10.4;;;6.1;;
4325;SDS011;58429;49.826;10.880;2023-05-07T05:28:00;9.4;;;6;;
4325;SDS011;58429;49.826;10.880;2023-05-07T05:29:00;9.4;;;6;;
4325;SDS011;58429;49.826;10.880;2023-05-07T05:30:00;9.4;;;6;;
4325;SDS011;58429;49.826;10.880;2023-05-07T05:31:00;10.4;;;6.1;;
4325;SDS011;58429;49.826;10.880;2023-05-07T05:32:00;10.4;;;6.1;;
4325;SDS011;58429;49.826;10.880;2023-05-07T05:33:00;10.4;;;6.1;;
4325;SDS011;58429;49.826;10.880;2023-05-07T05:34:00;11.4;;;6.5;;
4325;SDS011;58429;49.826;10.880;2023-05-07T05:35:00;11.4;;;6.5;;
4325;SDS011;58429;49.826;10.880;2023-05-07T05:36:00;11.4;;;6.5;;
4325;SDS011;58429;49.826;10.880;2023-05-07T05:37:00;11.1;;;6.8;;
4325;SDS011;58429;49.826;10.880;2023-05-07T05:38:00;11.1;;;6.8;;
4325;SDS011;58429;49.826;10.880;2023-05-07T05:39:00;11.1;;;6.8;;
4325;SDS011;58429;49.826;10.880;2023-05-07T05:40:00;10.7;;;6.1;;
4325;SDS011;58429;49.826;10.880;2023-05-07T05:41:00;10.7;;;6.1;;
4325;SDS011;58429;49.826;10.880;2023-05-07T05:42:00;10.7;;;6.1;;
4325;SDS011;58429;49.826;10.880;2023-05-07T05:43:00;10.9;;;6.4;;
4325;SDS011;58429;49.826;10.880;2023-05-07T05:44:00;10.9;;;6.4;;
4325;SDS011;58429;49.826;10.880;2023-05-07T05:45:00;10.9;;;6.4;;
4325;SDS011;58429;49.826;10.880;2023-05-07T05:46:00;10.9;;;6.2;;
4325;SDS011;58429;49.826;10.880;2023-05-07T05:47:00;10.9;;;6.2;;
4325;SDS011;58429;49.826;10.880;2023-05-07T05:48:00;10.9;;;6.2;;
4325;SDS011;58429;49.826;10.880;2023-05-07T05:49:00;10.7;;;6;;
4325;SDS011;58429;49.826;10.880;2023-05-07T05:50:00;10.7;;;6;;
4325;SDS011;58429;49.826;10.880;2023-05-07T05:51:00;10.7;;;6;;
4325;SDS011;58429;49.826;10.880;2023-05-07T05:52:00;11;;;6;;
4325;SDS011;58429;49.826;10.880;2023-05-07T05:53:00;11;;;6;;
4325;SDS011;58429;49.826;10.880;2023-05-07T05:54:00;11;;;6;;
4325;SDS011;58429;49.826;10.880;2023-05-07T05:55:00;10.8;;;6.5;;
4325;SDS011;58429;49.826;10.880;2023-05-07T05:56:00;10.8;;;6.5;;
4325;SDS011;58429;49.826;10.880;2023-05-07T05:57:00;10.8;;;6.5;;
4325;SDS011;58429;49.826;10.880;2023-05-07T05:58:00;11.5;;;6.8;;
4325;SDS011;58429;49.826;10.880;2023-05-07T05:59:00;11.5;;;6.8;;
4325;SDS011;58429;49.826;10.880;2023-05-07T06:00:00;11.5;;;6.8;;
4325;SDS011;58429;49.826;10.880;2023-05-07T06:01:00;10.7;;;6.2;;
4325;SDS011;58429;49.826;10.880;2023-05-07T06:02:00;10.7;;;6.2;;
4325;SDS011;58429;49.826;10.880;2023-05-07T06:03:00;10.7;;;6.2;;
4325;SDS011;58429;49.826;10.880;2023-05-07T06:04:00;12.6;;;7.4;;
4325;SDS011;58429;49.826;10.880;2023-05-07T06:05:00;12.6;;;7.4;;
4325;SDS011;58429;49.826;10.880;2023-05-07T06:06:00;12.6;;;7.4;;
4325;SDS011;58429;49.826;10.880;2023-05-07T06:07:00;12.8;;;7.3;;
4325;SDS011;58429;49.826;10.880;2023-05-07T06:08:00;12.8;;;7.3;;
4325;SDS011;58429;49.826;10.880;2023-05-07T06:09:00;12.8;;;7.3;;
4325;SDS011;58429;49.826;10.880;2023-05-07T06:10:00;12.4;;;7.9;;
4325;SDS011;58429;49.826;10.880;2023-05-07T06:11:00;12.4;;;7.9;;
4325;SDS011;58429;49.826;10.880;2023-05-07T06:12:00;12.4;;;7.9;;
4325;SDS011;58429;49.826;10.880;2023-05-07T06:13:00;14.2;;;8.3;;
4325;SDS011;58429;49.826;10.880;2023-05-07T06:14:00;14.2;;;8.3;;